Onweer radar Meer informatie blitzortung!


Regen radar Meer informatie rain snow radar


Bezoek ook deze websites:

Template documentation
and downloads

And another site


Het weer levert geen direct gevaar op.    Er zijn geen waarschuwingen afgegeven.

METAR rapporten vliegvelden

   
EHVK - Volkel Rnlafb, Netherlands
Afstand tot: ZW 18 km
Gewijzigd: Jul 5 2020 3:41 pm
Grotendeels bewolkt  
Grotendeels bewolkt  
   Wind: WZW 31.5 km/h<br />Gust to 31.5 km/h
Wind: WZW 31.5 km/h
Gust to 31.5 km/h
Temperatuur: 22°C
Dauwpunt: 16°C
Vochtigheid: 69%
Barometer: 1010 hPa
Bewolking: Grotendeels bewolkt
Zicht: meer dan 10 km
Bewolking: Licht bewolkt 670.6 m,
Grotendeels bewolkt 792.5 m,
Grotendeels bewolkt 883.9 m
EHVK 051341Z AUTO 24017G27KT 200V270 9999 FEW022 BKN026 BKN029 22/16 Q1010 BLU
EDLV - Niederrhein, Germany
Afstand tot: ZO 25 km
Gewijzigd: Jul 5 2020 3:20 pm
Grotendeels bewolkt  
Grotendeels bewolkt  
   Wind: WZW 22.2 km/h
Wind: WZW 22.2 km/h
Temperatuur: 22°C
Dauwpunt: 17°C
Vochtigheid: 73%
Barometer: 1011 hPa
Bewolking: Grotendeels bewolkt
Zicht: meer dan 10 km
Bewolking: Grotendeels bewolkt 762 m
EDLV 051320Z 24012KT 200V290 9999 BKN025 22/17 Q1011
EHDL - Deelen Rnlafb, Netherlands
Afstand tot: N 35 km
Gewijzigd: Jul 5 2020 3:25 pm
Grotendeels bewolkt  
Grotendeels bewolkt  
   Wind: ZW 27.8 km/h
Wind: ZW 27.8 km/h
Temperatuur: 20°C
Dauwpunt: 18°C
Vochtigheid: 88%
Barometer: 1010 hPa
Bewolking: Grotendeels bewolkt
Zicht: meer dan 10 km
Bewolking: Licht bewolkt 518.2 m,
Gedeeltelijk bewolkt 1097.3 m,
Grotendeels bewolkt 1493.5 m
EHDL 051325Z AUTO 23015KT 180V300 9999 FEW017 SCT036 BKN049 20/18 Q1010 BLU
EHEH - Eindhoven Rnlafb, Netherlands
Afstand tot: ZW 48 km
Gewijzigd: Jul 5 2020 3:31 pm
Grotendeels bewolkt  
Grotendeels bewolkt  
   Wind: ZW 37 km/h<br />Gust to 37 km/h
Wind: ZW 37 km/h
Gust to 37 km/h
Temperatuur: 22°C
Dauwpunt: 16°C
Vochtigheid: 69%
Barometer: 1011 hPa
Bewolking: Grotendeels bewolkt
Zicht: meer dan 10 km
Bewolking: Licht bewolkt 701 m,
Gedeeltelijk bewolkt 792.5 m,
Grotendeels bewolkt 1219.2 m
EHEH 051331Z AUTO 23020G30KT 200V300 9999 FEW023 SCT026 BKN040 22/16 Q1011 BLU 24017G27KT 9999 BKN016 TEMPO 24020G32KT 3000 -DZRA SCT007 OVC010
EHGR - Gilze-Rijen Rnla, Netherlands
Afstand tot: WZW 70 km
Gewijzigd: Jul 5 2020 3:25 pm
Grotendeels bewolkt  
Grotendeels bewolkt  
   Wind: WZW 18.5 km/h<br />Gust to 18.5 km/h
Wind: WZW 18.5 km/h
Gust to 18.5 km/h
Temperatuur: 21°C
Dauwpunt: 16°C
Vochtigheid: 73%
Barometer: 1011 hPa
Bewolking: Grotendeels bewolkt
Zicht: meer dan 10 km
Bewolking: Licht bewolkt 609.6 m,
Gedeeltelijk bewolkt 792.5 m,
Grotendeels bewolkt 944.9 m
EHGR 051325Z AUTO 24010G21KT 200V280 9999 FEW020 SCT026 BKN031 21/16 Q1011 BLU
EBBL - Kleine-Brogel(Ba, Belgium
Afstand tot: ZZW 71 km
Gewijzigd: Jul 5 2020 3:25 pm
Grotendeels bewolkt  
Grotendeels bewolkt  
   Wind: ZW 29.6 km/h
Wind: ZW 29.6 km/h
Temperatuur: 21°C
Dauwpunt: 17°C
Vochtigheid: 78%
Barometer: 1012 hPa
Bewolking: Grotendeels bewolkt
Zicht: meer dan 10 km
Bewolking: Grotendeels bewolkt 670.6 m
EBBL 051325Z AUTO 23016KT 9999 BKN022/// 21/17 Q1012 WHT

Script ontwikkeld door  Saratoga-weather.org Aangepast voor de template door  Weerstation Leuven

U vindt ons ook hier:

UK Metoffice

Weather Underground